NCAR-RAP Real-Time Weather Data

Output produced by METARs form (01 December 2020  17:45 UTC)
found at http://weather.rap.ucar.edu/surface/
 
KHLN 011653Z 28010KT 10SM OVC044 03/M06 A3037 RMK AO2 SLP324 T00281061 $
KHLN 011553Z 29007KT 10SM OVC046 02/M06 A3035 RMK AO2 SLP316 T00221056 $
KHLN 011453Z 30011KT 10SM BKN050 BKN065 OVC085 02/M06 A3032 RMK AO2 SLP305 T00221056 51025 $
KHLN 011353Z 29011G21KT 10SM SCT060 OVC090 02/M06 A3029 RMK AO2 SLP294 T00221056 $
KHLN 011253Z AUTO 28011G20KT 10SM SCT065 OVC090 02/M06 A3027 RMK AO2 SLP286 T00221056 $
KHLN 011153Z AUTO 27012G22KT 10SM FEW041 OVC085 03/M06 A3023 RMK AO2 SLP273 T00281056 10033 20017 51029 $
KHLN 011053Z AUTO 27015G23KT 10SM FEW039 SCT090 OVC110 03/M06 A3020 RMK AO2 SLP262 T00281056 $
KHLN 010953Z AUTO 27011G19KT 10SM FEW041 OVC085 03/M06 A3018 RMK AO2 SLP247 T00331056 $
KHLN 010853Z AUTO 26018G30KT 10SM OVC095 03/M06 A3014 RMK AO2 PK WND 26032/0841 PRESRR SLP240 T00331056 53031 $
KHLN 010753Z AUTO 26020G33KT 10SM OVC090 03/M06 A3010 RMK AO2 PK WND 26033/0750 SLP229 T00331056 $
KHLN 010653Z AUTO 27021G34KT 10SM FEW060 SCT070 OVC110 03/M06 A3007 RMK AO2 PK WND 28034/0651 SLP222 T00331056 400941100 $
KHLN 010553Z AUTO 29011G23KT 10SM FEW037 BKN047 OVC085 02/M04 A3003 RMK AO2 PK WND 25035/0500 SLP215 T00221044 10044 20022 53031 $
KHLN 010453Z AUTO 27023G34KT 10SM FEW042 SCT060 OVC080 03/M06 A2998 RMK AO2 PK WND 27034/0452 SLP207 T00281056 $
KHLN 010353Z AUTO 26021G40KT 10SM SCT035 03/M05 A2997 RMK AO2 PK WND 28040/0344 SLP197 T00281050 $